Time;durP1;ratioP1;P1;durP2;ratioP2;P2;SDS_P1;SDS_P2;PMS_P1;PMS_P2;Temp;Humidity;BMP_temperature;BMP_pressure;BME280_temperature;BME280_humidity;BME280_pressure;Samples;Min_cycle;Max_cycle;Signal;HPM_P1;HPM_P2
2022/10/17 00:01:10;;;;;;;7.82;5.93;;;15.30;99.90;;;;;;5073696;28;20024;-77
2022/10/17 00:03:37;;;;;;;11.80;6.30;;;15.30;99.90;;;;;;5055712;28;20052;-77
2022/10/17 00:06:10;;;;;;;9.65;5.95;;;15.30;99.90;;;;;;5073055;28;20115;-76
2022/10/17 00:08:38;;;;;;;8.20;6.07;;;15.30;99.90;;;;;;5073177;28;20032;-77
2022/10/17 00:11:11;;;;;;;8.02;6.15;;;15.30;99.90;;;;;;5073638;28;20056;-77
2022/10/17 00:13:37;;;;;;;7.75;5.70;;;15.30;99.90;;;;;;5086049;22;20516;-85
2022/10/17 00:16:04;;;;;;;11.27;6.07;;;15.30;99.90;;;;;;5034891;28;20032;-86
2022/10/17 00:18:34;;;;;;;6.85;5.18;;;15.30;99.90;;;;;;5035486;28;20037;-86
2022/10/17 00:20:59;;;;;;;8.98;6.10;;;15.30;99.90;;;;;;5053233;28;20063;-85
2022/10/17 00:23:29;;;;;;;8.98;6.15;;;15.30;99.90;;;;;;5043329;28;20056;-85
2022/10/17 00:26:01;;;;;;;;;;;15.30;99.90;;;;;;5073573;28;20052;-86
2022/10/17 00:28:27;;;;;;;9.82;6.20;;;15.30;99.90;;;;;;5055371;28;19908;-85
2022/10/17 00:30:58;;;;;;;9.25;6.25;;;15.30;99.90;;;;;;5072863;28;20028;-85
2022/10/17 00:33:25;;;;;;;8.68;6.38;;;15.30;99.90;;;;;;5072973;28;20029;-85
2022/10/17 00:36:00;;;;;;;8.30;6.85;;;15.30;99.90;;;;;;5054558;28;20028;-85
2022/10/17 00:38:26;;;;;;;9.65;6.78;;;15.40;99.90;;;;;;5055348;28;20029;-85
2022/10/17 00:40:54;;;;;;;7.30;5.60;;;15.40;99.90;;;;;;5054616;28;20028;-85
2022/10/17 00:43:20;;;;;;;9.95;6.78;;;15.40;99.90;;;;;;5072868;28;20069;-85
2022/10/17 00:45:46;;;;;;;8.95;6.53;;;15.30;99.90;;;;;;5054578;28;20120;-85
2022/10/17 00:48:13;;;;;;;9.35;6.40;;;15.30;99.90;;;;;;5054718;28;20035;-85
2022/10/17 00:50:42;;;;;;;9.88;6.40;;;15.30;99.90;;;;;;5054462;28;20059;-85
2022/10/17 00:53:10;;;;;;;;;;;15.40;99.90;;;;;;5055114;28;20401;-85
2022/10/17 00:55:43;;;;;;;7.27;5.57;;;15.40;99.90;;;;;;5054587;28;19919;-85
2022/10/17 00:58:09;;;;;;;9.13;5.78;;;15.40;99.90;;;;;;5072673;28;20025;-85
2022/10/17 01:00:36;;;;;;;9.15;6.30;;;15.40;99.90;;;;;;5072457;28;20358;-85
2022/10/17 01:03:03;;;;;;;7.03;5.53;;;15.40;99.90;;;;;;5054308;28;20550;-85
2022/10/17 01:05:29;;;;;;;7.05;5.65;;;15.40;99.90;;;;;;5038221;28;20036;-85
2022/10/17 01:07:55;;;;;;;8.95;6.40;;;15.50;99.90;;;;;;5037888;28;20055;-86
2022/10/17 01:10:26;;;;;;;6.22;5.55;;;15.40;99.90;;;;;;5054120;28;20086;-86
2022/10/17 01:13:12;;;;;;;9.13;6.22;;;15.40;99.90;;;;;;5054218;28;20032;-86
2022/10/17 01:16:01;;;;;;;9.52;6.40;;;15.40;99.90;;;;;;5054092;28;20128;-85
2022/10/17 01:19:06;;;;;;;11.18;6.78;;;15.40;99.90;;;;;;5053545;28;20075;-85
2022/10/17 01:21:45;;;;;;;7.55;5.75;;;15.40;99.90;;;;;;5072072;28;20029;-85
2022/10/17 01:24:40;;;;;;;7.47;6.22;;;15.40;99.90;;;;;;5054431;28;20385;-85
2022/10/17 01:27:20;;;;;;;9.32;6.88;;;15.40;99.90;;;;;;5071893;28;20047;-86
2022/10/17 01:30:04;;;;;;;8.48;6.40;;;15.40;99.90;;;;;;5071781;28;20106;-85
2022/10/17 01:32:35;;;;;;;8.60;6.45;;;15.50;99.90;;;;;;5037438;28;20473;-85
2022/10/17 01:35:33;;;;;;;7.95;5.57;;;15.40;99.90;;;;;;5037323;28;20365;-85
2022/10/17 01:38:07;;;;;;;10.32;5.97;;;15.40;99.90;;;;;;5053744;28;20055;-85
2022/10/17 01:40:47;;;;;;;8.25;5.90;;;15.50;99.90;;;;;;5071461;28;20500;-85
2022/10/17 01:43:19;;;;;;;7.78;5.30;;;15.50;99.90;;;;;;5054002;28;20542;-85
2022/10/17 01:45:59;;;;;;;7.60;6.03;;;15.40;99.90;;;;;;5053641;28;20443;-85
2022/10/17 01:48:33;;;;;;;7.15;5.40;;;15.50;99.90;;;;;;5071718;28;20024;-85
2022/10/17 01:51:22;;;;;;;8.38;5.75;;;15.50;99.90;;;;;;5053528;28;20123;-85
2022/10/17 01:53:59;;;;;;;9.85;5.90;;;15.50;99.90;;;;;;5053356;28;20040;-85
2022/10/17 01:56:28;;;;;;;8.30;5.60;;;15.50;99.90;;;;;;5053290;28;20028;-85
2022/10/17 01:59:04;;;;;;;9.07;6.15;;;15.60;99.90;;;;;;5053344;28;20039;-85
2022/10/17 02:01:33;;;;;;;9.77;6.20;;;15.60;99.90;;;;;;5053511;28;20024;-85
2022/10/17 02:04:01;;;;;;;10.00;5.75;;;15.60;99.90;;;;;;5053713;28;20129;-85
2022/10/17 02:06:27;;;;;;;7.00;5.87;;;15.70;99.90;;;;;;5071509;28;20416;-85
2022/10/17 02:08:54;;;;;;;7.55;5.25;;;15.70;99.90;;;;;;5053168;28;20028;-86
2022/10/17 02:11:23;;;;;;;6.82;5.70;;;15.70;99.90;;;;;;5053430;28;20028;-86
2022/10/17 02:14:21;;;;;;;6.05;5.15;;;15.70;99.90;;;;;;5053137;28;20043;-85
2022/10/17 02:17:07;;;;;;;7.80;5.38;;;15.70;99.90;;;;;;5036784;28;20083;-85
2022/10/17 02:20:03;;;;;;;9.95;6.93;;;15.70;99.90;;;;;;5053001;28;20025;-85
2022/10/17 02:22:45;;;;;;;7.75;5.70;;;15.70;99.90;;;;;;5071122;28;20496;-85
2022/10/17 02:25:30;;;;;;;7.30;5.72;;;15.70;99.90;;;;;;5053306;28;20032;-86
2022/10/17 02:28:18;;;;;;;9.27;6.50;;;15.70;99.90;;;;;;5052966;28;20025;-85
2022/10/17 02:30:52;;;;;;;10.35;6.85;;;15.70;99.90;;;;;;5053097;28;20032;-86
2022/10/17 02:33:33;;;;;;;12.13;7.65;;;15.80;99.90;;;;;;5053131;28;20029;-86
2022/10/17 02:36:07;;;;;;;13.80;7.97;;;15.70;99.90;;;;;;5071300;28;20028;-86
2022/10/17 02:38:34;;;;;;;9.63;7.53;;;15.80;99.90;;;;;;5071375;28;20017;-86
2022/10/17 02:41:00;;;;;;;10.77;7.25;;;15.80;99.90;;;;;;5052917;28;20028;-86
2022/10/17 02:43:27;;;;;;;8.18;6.60;;;15.80;99.90;;;;;;5053023;28;20077;-86
2022/10/17 02:45:55;;;;;;;8.93;6.60;;;15.80;99.90;;;;;;5035657;28;20036;-86
2022/10/17 02:48:26;;;;;;;7.90;6.13;;;15.80;99.90;;;;;;5052997;28;20024;-86
2022/10/17 02:51:31;;;;;;;9.23;6.40;;;15.80;99.90;;;;;;5052744;28;20033;-85
2022/10/17 02:54:18;;;;;;;8.90;6.07;;;15.80;99.90;;;;;;5024423;28;20552;-85
2022/10/17 02:57:20;;;;;;;9.60;6.43;;;15.80;99.90;;;;;;5052770;28;20409;-85
2022/10/17 02:59:48;;;;;;;8.95;6.40;;;15.70;99.90;;;;;;5052549;28;20051;-85
2022/10/17 03:02:13;;;;;;;8.15;6.30;;;15.70;99.90;;;;;;5036245;28;20025;-85
2022/10/17 03:04:44;;;;;;;7.43;5.80;;;15.70;99.90;;;;;;5052852;28;20059;-85
2022/10/17 03:07:10;;;;;;;7.43;5.72;;;15.70;99.90;;;;;;5019778;28;20040;-85
2022/10/17 03:09:37;;;;;;;8.77;5.50;;;15.70;99.90;;;;;;5052610;28;20024;-85
2022/10/17 03:12:03;;;;;;;9.20;5.70;;;15.70;99.90;;;;;;5036133;28;20028;-85
2022/10/17 03:14:29;;;;;;;6.93;5.38;;;15.70;99.90;;;;;;5052381;28;20504;-85
2022/10/17 03:16:55;;;;;;;8.38;5.55;;;15.70;99.90;;;;;;5052344;28;20056;-85
2022/10/17 03:19:21;;;;;;;6.50;5.20;;;15.80;99.90;;;;;;5052718;28;20047;-85
2022/10/17 03:21:47;;;;;;;13.10;5.68;;;15.70;99.90;;;;;;5052494;28;20052;-85
2022/10/17 03:24:13;;;;;;;8.60;6.10;;;15.70;99.90;;;;;;5070467;28;20479;-85
2022/10/17 03:26:39;;;;;;;6.93;5.28;;;15.80;99.90;;;;;;5052284;28;20038;-85
2022/10/17 03:32:50;;;;;;;7.05;5.53;;;15.80;99.90;;;;;;5049898;28;20037;-94
2022/10/17 03:35:16;;;;;;;7.85;4.78;;;15.80;99.90;;;;;;5064364;28;20041;-84
2022/10/17 03:37:46;;;;;;;7.80;5.75;;;15.80;99.90;;;;;;5034951;28;20066;-85
2022/10/17 03:40:13;;;;;;;8.52;5.80;;;15.80;99.90;;;;;;5044046;28;20032;-85
2022/10/17 03:42:39;;;;;;;8.13;5.32;;;15.80;99.90;;;;;;5071682;28;20040;-84
2022/10/17 03:45:05;;;;;;;7.70;5.78;;;15.80;99.90;;;;;;5054606;28;20036;-86
2022/10/17 03:47:31;;;;;;;8.32;5.07;;;15.80;99.90;;;;;;5054439;28;20551;-85
2022/10/17 03:49:57;;;;;;;6.40;5.07;;;15.80;99.90;;;;;;5054216;28;20111;-86
2022/10/17 03:52:23;;;;;;;7.38;5.32;;;15.80;99.90;;;;;;5054769;28;20024;-86
2022/10/17 03:54:52;;;;;;;7.10;5.18;;;15.80;99.90;;;;;;5036874;28;20050;-85
2022/10/17 03:57:18;;;;;;;8.13;5.30;;;15.80;99.90;;;;;;5054067;28;20025;-86
2022/10/17 03:59:44;;;;;;;7.15;5.07;;;15.80;99.90;;;;;;5072039;28;20024;-85
2022/10/17 04:02:14;;;;;;;6.55;4.68;;;15.80;99.90;;;;;;5054303;28;20425;-85
2022/10/17 04:04:40;;;;;;;7.55;5.18;;;15.80;99.90;;;;;;5051573;28;20049;-86
2022/10/17 04:07:06;;;;;;;6.82;5.57;;;15.90;99.90;;;;;;5042367;28;20342;-86
2022/10/17 04:09:35;;;;;;;7.55;5.07;;;15.80;99.90;;;;;;5050531;28;20059;-86
2022/10/17 04:12:12;;;;;;;6.22;4.82;;;15.90;99.90;;;;;;5053967;28;20048;-85
2022/10/17 04:14:39;;;;;;;7.45;4.80;;;15.90;99.90;;;;;;5053192;28;20028;-86
2022/10/17 04:17:05;;;;;;;7.70;5.40;;;15.90;99.90;;;;;;5053451;28;20031;-86
2022/10/17 04:19:32;;;;;;;8.82;5.30;;;15.90;99.90;;;;;;5036670;28;20032;-85
2022/10/17 04:21:58;;;;;;;6.65;5.07;;;15.90;99.90;;;;;;5053141;28;20372;-86
2022/10/17 04:24:24;;;;;;;6.35;5.22;;;15.90;99.90;;;;;;5052870;28;20648;-86
2022/10/17 04:27:02;;;;;;;;;;;15.90;99.90;;;;;;5053418;28;20048;-85
2022/10/17 04:29:31;;;;;;;8.45;6.28;;;15.90;99.90;;;;;;5036746;28;19909;-86
2022/10/17 04:32:07;;;;;;;8.00;5.88;;;15.90;99.90;;;;;;5037963;28;20041;-85
2022/10/17 04:34:41;;;;;;;8.27;5.75;;;15.80;99.90;;;;;;5053360;28;20036;-86
2022/10/17 04:37:07;;;;;;;12.75;6.00;;;15.80;99.90;;;;;;5071039;28;20504;-85
2022/10/17 04:39:34;;;;;;;7.57;5.93;;;15.80;99.90;;;;;;5054478;28;20028;-85
2022/10/17 04:42:06;;;;;;;8.38;5.97;;;15.90;99.90;;;;;;5071605;28;20040;-91
2022/10/17 04:44:34;;;;;;;8.23;5.45;;;15.80;99.90;;;;;;5072372;28;20477;-86
2022/10/17 04:47:40;;;;;;;8.48;5.78;;;15.90;99.90;;;;;;5053853;28;20032;-90
2022/10/17 04:50:06;;;;;;;7.10;5.40;;;15.90;99.90;;;;;;5052533;28;20029;-84
2022/10/17 04:52:37;;;;;;;9.03;5.93;;;15.80;99.90;;;;;;5052478;28;20376;-82
2022/10/17 04:58:56;;;;;;;9.52;6.75;;;15.90;99.90;;;;;;5011099;28;19963;-91
2022/10/17 05:01:30;;;;;;;8.80;6.88;;;15.90;99.90;;;;;;4993172;28;20034;-91
2022/10/17 05:03:57;;;;;;;10.05;6.57;;;15.90;99.90;;;;;;5013903;28;20109;-86
2022/10/17 05:06:26;;;;;;;9.23;7.03;;;16.00;99.90;;;;;;5070232;28;20397;-86
2022/10/17 05:17:16;;;;;;;7.70;5.18;;;16.00;99.90;;;;;;4887755;29;20099;-87
2022/10/17 05:19:45;;;;;;;6.88;5.25;;;16.10;99.90;;;;;;4896954;29;20516;-88
2022/10/17 05:22:11;;;;;;;7.47;5.22;;;16.10;99.90;;;;;;4977569;28;20054;-79
2022/10/17 05:24:38;;;;;;;9.43;5.50;;;16.10;99.90;;;;;;5051007;28;20457;-79
2022/10/17 05:27:04;;;;;;;8.82;5.05;;;16.10;99.90;;;;;;5051785;28;20079;-80
2022/10/17 05:29:29;;;;;;;9.60;5.22;;;16.10;99.90;;;;;;5051660;28;20147;-79
2022/10/17 05:32:04;;;;;;;8.15;5.50;;;16.10;99.90;;;;;;5051762;28;20059;-79
2022/10/17 05:34:33;;;;;;;7.47;5.40;;;16.10;99.90;;;;;;5051741;28;20401;-79
2022/10/17 05:36:59;;;;;;;9.07;5.40;;;16.10;99.90;;;;;;5050900;28;20044;-79
2022/10/17 05:39:25;;;;;;;9.07;5.95;;;16.10;99.90;;;;;;5050507;28;20048;-80
2022/10/17 05:41:51;;;;;;;8.30;5.75;;;16.10;99.90;;;;;;5051465;28;20353;-80
2022/10/17 05:44:17;;;;;;;8.75;5.70;;;16.20;99.90;;;;;;5051179;28;20037;-80
2022/10/17 05:46:48;;;;;;;8.75;5.60;;;16.10;99.90;;;;;;5069396;28;20024;-80
2022/10/17 05:49:15;;;;;;;7.10;4.95;;;16.20;99.90;;;;;;5050965;28;20025;-79
2022/10/17 05:51:41;;;;;;;10.07;5.90;;;16.20;99.90;;;;;;5034305;28;20029;-79
2022/10/17 05:54:07;;;;;;;8.25;5.60;;;16.20;99.90;;;;;;5050386;28;20024;-79
2022/10/17 05:56:35;;;;;;;10.18;5.68;;;16.20;99.90;;;;;;5050967;28;20082;-79
2022/10/17 05:59:00;;;;;;;6.40;4.97;;;16.20;99.90;;;;;;5050695;28;20032;-79
2022/10/17 06:01:46;;;;;;;7.78;5.28;;;16.20;99.90;;;;;;5068557;28;20153;-80
2022/10/17 06:04:13;;;;;;;8.02;5.57;;;16.10;99.90;;;;;;5050473;28;20112;-79
2022/10/17 06:06:39;;;;;;;8.25;5.03;;;16.10;99.90;;;;;;5050367;28;20064;-80
2022/10/17 06:09:06;;;;;;;7.18;5.15;;;16.10;99.90;;;;;;5065780;28;20027;-85
2022/10/17 06:11:36;;;;;;;7.47;5.18;;;16.10;99.90;;;;;;5036128;28;20036;-84
2022/10/17 06:14:07;;;;;;;8.40;5.13;;;16.10;99.90;;;;;;5039836;28;20353;-84
2022/10/17 06:16:42;;;;;;;9.18;4.78;;;16.10;99.90;;;;;;5037123;28;20040;-88
2022/10/17 06:19:46;;;;;;;;;;;;;;;;;;;;;
2022/10/17 06:25:00;;;;;;;9.88;5.63;;;16.20;99.90;;;;;;5085057;28;20040;-70
2022/10/17 06:27:26;;;;;;;8.50;5.63;;;16.20;99.90;;;;;;5071350;28;20031;-70
2022/10/17 06:29:52;;;;;;;8.98;5.55;;;16.20;99.90;;;;;;5089148;28;20028;-69
2022/10/17 06:32:18;;;;;;;8.80;5.10;;;16.20;99.90;;;;;;5070745;28;20024;-71
2022/10/17 06:34:45;;;;;;;8.30;5.45;;;16.20;99.90;;;;;;5070941;28;20024;-70
2022/10/17 06:37:11;;;;;;;9.43;5.13;;;16.20;99.90;;;;;;5089159;28;20035;-70
2022/10/17 06:39:39;;;;;;;8.15;4.72;;;16.20;99.90;;;;;;5070437;28;20027;-70
2022/10/17 06:42:19;;;;;;;12.38;5.72;;;16.20;99.90;;;;;;5071237;28;20032;-70
2022/10/17 06:45:01;;;;;;;10.57;6.00;;;16.20;99.90;;;;;;5071199;28;20028;-71
2022/10/17 06:47:40;;;;;;;15.27;8.02;;;16.20;99.90;;;;;;5070883;28;20027;-72
2022/10/17 06:50:41;;;;;;;15.05;5.45;;;16.30;99.90;;;;;;5075346;28;20519;-72
2022/10/17 06:53:15;;;;;;;11.02;5.50;;;16.80;99.90;;;;;;5070894;28;20032;-72
2022/10/17 06:56:10;;;;;;;10.43;5.93;;;17.00;99.90;;;;;;5015804;28;20037;-71
2022/10/17 06:58:56;;;;;;;11.25;5.78;;;17.20;99.90;;;;;;5088230;28;20083;-71
2022/10/17 07:01:25;;;;;;;12.93;4.82;;;17.40;99.90;;;;;;5088737;28;20044;-71
2022/10/17 07:03:55;;;;;;;7.88;4.60;;;17.50;99.90;;;;;;5070554;28;20090;-71
2022/10/17 07:06:23;;;;;;;7.93;4.47;;;17.60;99.90;;;;;;5054267;28;20036;-71
2022/10/17 07:08:50;;;;;;;8.07;4.40;;;17.60;99.90;;;;;;5070152;28;20621;-73
2022/10/17 07:11:19;;;;;;;6.85;4.10;;;17.60;99.90;;;;;;5071002;28;20394;-73
2022/10/17 07:13:48;;;;;;;8.25;4.53;;;17.50;99.90;;;;;;5070402;28;20032;-73
2022/10/17 07:16:15;;;;;;;8.98;5.80;;;17.40;99.90;;;;;;5070517;28;20425;-73
2022/10/17 07:18:42;;;;;;;7.80;4.63;;;17.30;99.90;;;;;;5074183;28;20032;-73
2022/10/17 07:21:09;;;;;;;8.65;4.50;;;17.20;99.90;;;;;;5074602;28;20020;-72
2022/10/17 07:23:40;;;;;;;6.70;4.22;;;17.20;99.90;;;;;;5057620;28;20301;-71
2022/10/17 07:26:08;;;;;;;7.38;4.40;;;17.10;99.90;;;;;;5073807;28;20028;-73
2022/10/17 07:28:38;;;;;;;7.40;4.15;;;17.00;99.90;;;;;;5073805;28;20499;-72
2022/10/17 07:31:17;;;;;;;9.50;4.85;;;16.90;99.90;;;;;;5074084;28;20040;-73
2022/10/17 07:33:44;;;;;;;9.43;5.93;;;16.90;99.90;;;;;;5074163;28;20028;-71
2022/10/17 07:36:11;;;;;;;9.23;4.57;;;16.90;99.90;;;;;;5073922;28;20082;-70
2022/10/17 07:38:38;;;;;;;7.38;4.65;;;16.80;99.90;;;;;;5073702;28;20024;-72
2022/10/17 07:41:06;;;;;;;9.13;4.57;;;16.90;99.90;;;;;;5073930;28;20135;-71
2022/10/17 07:43:33;;;;;;;8.35;4.75;;;16.90;99.90;;;;;;5074069;28;20456;-71
2022/10/17 07:46:01;;;;;;;8.55;4.60;;;16.90;99.90;;;;;;5073765;28;20036;-73
2022/10/17 07:48:27;;;;;;;8.35;4.60;;;16.90;99.90;;;;;;5074967;28;20032;-70
2022/10/17 07:50:54;;;;;;;13.65;4.50;;;16.90;99.90;;;;;;5074667;28;20039;-69
2022/10/17 07:53:20;;;;;;;7.70;4.25;;;17.00;99.90;;;;;;5075474;28;20110;-67
2022/10/17 07:55:48;;;;;;;7.97;4.70;;;17.00;99.90;;;;;;5074611;28;20032;-69
2022/10/17 07:58:14;;;;;;;10.65;6.05;;;17.00;99.90;;;;;;5093513;28;20047;-68
2022/10/17 08:00:40;;;;;;;7.05;4.45;;;17.00;99.90;;;;;;5092959;28;20516;-70
2022/10/17 08:03:07;;;;;;;7.55;4.57;;;17.00;99.90;;;;;;5092941;28;20035;-69
2022/10/17 08:05:33;;;;;;;6.38;4.53;;;16.90;99.90;;;;;;5092605;28;20506;-70
2022/10/17 08:07:59;;;;;;;7.28;4.93;;;17.00;99.90;;;;;;5092721;28;20058;-70
2022/10/17 08:10:28;;;;;;;8.05;5.35;;;16.90;99.90;;;;;;5092280;28;20028;-70
2022/10/17 08:12:55;;;;;;;8.27;5.00;;;16.90;99.90;;;;;;5092599;28;20032;-69
2022/10/17 08:15:22;;;;;;;10.35;4.95;;;16.80;99.90;;;;;;5092564;28;20106;-69
2022/10/17 08:17:47;;;;;;;9.45;4.93;;;16.80;99.90;;;;;;5092444;28;20028;-69
2022/10/17 08:20:13;;;;;;;14.38;5.50;;;16.80;99.90;;;;;;5091946;28;20100;-69
2022/10/17 08:22:40;;;;;;;8.85;4.85;;;16.70;99.90;;;;;;5090576;28;20031;-72
2022/10/17 08:25:06;;;;;;;8.98;5.07;;;16.80;99.90;;;;;;5090205;28;20153;-68
2022/10/17 08:27:34;;;;;;;7.07;5.40;;;16.70;99.90;;;;;;5090065;28;20039;-67
2022/10/17 08:30:00;;;;;;;7.20;4.82;;;16.70;99.90;;;;;;5091015;28;20653;-68
2022/10/17 08:32:28;;;;;;;7.50;5.70;;;16.70;99.90;;;;;;5090113;28;20028;-71
2022/10/17 08:34:56;;;;;;;8.35;5.20;;;16.70;99.90;;;;;;5090638;28;20031;-67
2022/10/17 08:37:22;;;;;;;10.50;5.35;;;16.70;99.90;;;;;;5081357;28;20024;-68
2022/10/17 08:39:48;;;;;;;7.00;4.78;;;16.70;99.90;;;;;;5090783;28;20043;-67
2022/10/17 08:42:27;;;;;;;8.90;4.65;;;16.70;99.90;;;;;;5091098;28;20062;-68
2022/10/17 08:45:17;;;;;;;9.32;5.22;;;16.70;99.90;;;;;;5090444;28;20016;-68
2022/10/17 08:47:46;;;;;;;9.40;5.50;;;16.80;99.90;;;;;;5071811;28;20028;-67
2022/10/17 08:50:15;;;;;;;;;;;16.80;99.90;;;;;;5095469;28;20097;-67
2022/10/17 08:52:50;;;;;;;11.55;5.15;;;16.80;99.90;;;;;;5090715;28;19994;-67
2022/10/17 08:55:33;;;;;;;11.25;5.30;;;16.80;99.90;;;;;;5089868;28;20036;-67
2022/10/17 08:57:59;;;;;;;8.63;5.13;;;16.80;99.90;;;;;;5089890;28;20517;-68
2022/10/17 09:00:27;;;;;;;8.57;5.38;;;16.90;99.90;;;;;;5072240;28;20202;-68
2022/10/17 09:02:58;;;;;;;11.87;5.67;;;16.90;99.90;;;;;;5090719;28;20047;-68
2022/10/17 09:05:36;;;;;;;7.68;4.95;;;16.90;99.90;;;;;;5095254;28;20165;-68
2022/10/17 09:08:15;;;;;;;9.10;5.35;;;16.90;99.90;;;;;;5090473;28;20468;-68
2022/10/17 09:10:47;;;;;;;9.35;5.32;;;16.90;99.90;;;;;;5089446;28;20032;-71
2022/10/17 09:13:34;;;;;;;7.28;4.72;;;17.00;99.90;;;;;;5087327;28;20028;-70
2022/10/17 09:16:06;;;;;;;8.38;4.80;;;17.00;99.90;;;;;;5089202;28;20404;-70
2022/10/17 09:18:37;;;;;;;10.30;5.05;;;17.00;99.90;;;;;;5089706;28;20398;-69
2022/10/17 09:21:30;;;;;;;9.35;4.78;;;17.00;99.90;;;;;;5089466;28;20107;-70
2022/10/17 09:24:00;;;;;;;7.63;5.15;;;17.10;99.90;;;;;;5084016;28;20407;-69
2022/10/17 09:26:27;;;;;;;7.80;4.72;;;17.10;99.90;;;;;;5090263;28;20032;-70
2022/10/17 09:28:58;;;;;;;9.85;4.70;;;17.10;99.90;;;;;;5089505;28;20337;-70
2022/10/17 09:31:32;;;;;;;8.68;4.68;;;17.10;99.90;;;;;;5090645;28;20062;-71
2022/10/17 09:34:01;;;;;;;8.90;4.57;;;17.10;99.90;;;;;;5089973;28;20474;-71
2022/10/17 09:36:28;;;;;;;16.13;5.07;;;17.30;99.90;;;;;;5072436;28;20040;-74
2022/10/17 09:39:04;;;;;;;8.63;4.18;;;17.40;99.90;;;;;;5088647;28;20710;-69
2022/10/17 09:41:36;;;;;;;10.80;4.72;;;17.50;99.90;;;;;;5091711;28;20055;-69
2022/10/17 09:44:14;;;;;;;9.60;4.18;;;17.60;99.90;;;;;;5090707;28;20020;-70
2022/10/17 09:46:45;;;;;;;8.27;4.27;;;17.60;99.90;;;;;;5072694;28;20031;-70
2022/10/17 09:49:20;;;;;;;8.43;4.47;;;17.70;99.90;;;;;;5070364;28;20028;-70
2022/10/17 09:51:47;;;;;;;8.18;4.65;;;17.80;99.90;;;;;;5070289;28;20111;-70
2022/10/17 09:54:27;;;;;;;9.95;4.80;;;17.80;99.90;;;;;;5070276;28;20028;-70
2022/10/17 09:57:05;;;;;;;7.88;4.40;;;17.80;99.90;;;;;;5070152;28;20042;-70
2022/10/17 09:59:37;;;;;;;12.87;5.60;;;17.90;99.90;;;;;;5070552;28;20027;-70
2022/10/17 10:02:24;;;;;;;8.52;4.53;;;17.80;99.90;;;;;;5052669;28;20028;-70
2022/10/17 10:04:54;;;;;;;8.50;5.38;;;17.80;99.90;;;;;;5071298;28;20536;-70
2022/10/17 10:07:21;;;;;;;10.73;6.07;;;17.80;99.90;;;;;;5071258;28;20455;-70
2022/10/17 10:09:49;;;;;;;12.93;6.93;;;17.70;99.90;;;;;;5071016;28;20454;-70
2022/10/17 10:12:28;;;;;;;9.07;5.13;;;17.70;99.90;;;;;;5071454;28;20527;-70
2022/10/17 10:14:54;;;;;;;8.43;4.60;;;17.60;99.90;;;;;;5071257;28;20271;-70
2022/10/17 10:17:42;;;;;;;11.23;5.20;;;17.60;99.90;;;;;;5071001;28;20043;-70
2022/10/17 10:20:32;;;;;;;8.50;5.28;;;17.60;99.90;;;;;;5070885;28;20439;-70
2022/10/17 10:23:20;;;;;;;11.27;5.28;;;17.60;99.90;;;;;;5070767;28;20159;-70
2022/10/17 10:26:21;;;;;;;8.50;4.50;;;17.50;99.90;;;;;;5071437;28;20028;-70
2022/10/17 10:29:18;;;;;;;11.70;7.03;;;17.50;99.90;;;;;;5028072;28;20075;-70
2022/10/17 10:31:45;;;;;;;10.13;6.82;;;17.50;99.90;;;;;;5071543;28;20415;-70
2022/10/17 10:34:30;;;;;;;10.80;7.22;;;17.50;99.90;;;;;;5071074;28;20031;-70
2022/10/17 10:37:06;;;;;;;12.15;6.70;;;17.60;99.90;;;;;;5070745;28;20028;-71
2022/10/17 10:39:56;;;;;;;8.65;6.13;;;17.60;99.90;;;;;;5037218;28;20052;-71
2022/10/17 10:42:27;;;;;;;9.50;5.50;;;17.60;99.90;;;;;;5071286;28;20032;-70
2022/10/17 10:45:22;;;;;;;9.10;5.10;;;17.70;99.90;;;;;;5053249;28;20032;-70
2022/10/17 10:48:19;;;;;;;10.05;4.93;;;17.70;99.90;;;;;;5022693;28;20055;-71
2022/10/17 10:50:54;;;;;;;8.98;5.53;;;17.80;99.90;;;;;;5036325;28;20040;-70
2022/10/17 10:53:56;;;;;;;13.00;5.05;;;17.80;99.90;;;;;;5075222;28;20036;-71
2022/10/17 10:56:24;;;;;;;7.57;4.28;;;17.80;99.90;;;;;;5074925;28;20108;-70
2022/10/17 10:58:51;;;;;;;8.18;4.43;;;17.90;99.90;;;;;;5057205;28;20035;-71
2022/10/17 11:01:35;;;;;;;5.20;4.00;;;17.80;99.90;;;;;;5074924;28;20025;-71
2022/10/17 11:04:22;;;;;;;8.75;4.35;;;17.80;99.90;;;;;;5074794;28;20032;-70
2022/10/17 11:06:52;;;;;;;8.52;4.85;;;17.80;99.90;;;;;;5056774;28;20036;-70
2022/10/17 11:09:42;;;;;;;7.70;4.72;;;17.80;99.90;;;;;;5056894;28;20033;-71
2022/10/17 11:12:20;;;;;;;7.80;5.75;;;17.80;99.90;;;;;;5040582;28;20139;-70
2022/10/17 11:15:01;;;;;;;10.40;6.07;;;17.80;99.90;;;;;;5075186;28;20043;-70
2022/10/17 11:17:36;;;;;;;9.90;6.65;;;17.70;99.90;;;;;;5074831;28;20033;-71
2022/10/17 11:20:08;;;;;;;8.77;6.07;;;17.70;99.90;;;;;;5074563;28;20063;-71
2022/10/17 11:22:46;;;;;;;9.75;6.32;;;17.70;99.90;;;;;;5074710;28;20085;-71
2022/10/17 11:25:41;;;;;;;13.33;6.90;;;17.70;99.90;;;;;;5074413;28;20036;-70
2022/10/17 11:28:17;;;;;;;10.40;6.82;;;17.70;99.90;;;;;;5057262;28;20043;-71
2022/10/17 11:30:57;;;;;;;12.15;7.35;;;17.60;99.90;;;;;;5074164;28;20036;-71
2022/10/17 11:33:36;;;;;;;13.63;7.68;;;17.60;99.90;;;;;;5056325;28;20024;-70
2022/10/17 11:36:05;;;;;;;11.88;7.25;;;17.60;99.90;;;;;;5074260;28;20551;-71
2022/10/17 11:38:37;;;;;;;17.02;8.48;;;17.70;99.90;;;;;;5073987;28;20082;-70
2022/10/17 11:41:05;;;;;;;15.48;7.35;;;17.70;99.90;;;;;;5074328;28;20139;-70
2022/10/17 11:43:34;;;;;;;9.50;5.57;;;17.80;99.90;;;;;;5056552;28;20039;-71
2022/10/17 11:46:28;;;;;;;12.82;6.38;;;17.80;99.90;;;;;;5074230;28;20035;-71
2022/10/17 11:49:15;;;;;;;14.90;5.75;;;17.90;99.90;;;;;;5073777;28;20032;-71
2022/10/17 11:52:08;;;;;;;8.65;4.90;;;17.90;99.90;;;;;;5073797;28;20123;-71
2022/10/17 11:54:41;;;;;;;7.45;4.78;;;17.90;99.90;;;;;;5055565;28;20484;-70
2022/10/17 11:57:48;;;;;;;9.70;6.25;;;18.00;99.90;;;;;;5055606;28;20036;-70
2022/10/17 12:00:20;;;;;;;11.90;5.63;;;17.90;99.90;;;;;;5042394;28;20508;-71
2022/10/17 12:03:07;;;;;;;7.57;4.75;;;18.00;99.90;;;;;;5073439;28;20047;-71
2022/10/17 12:05:47;;;;;;;11.57;5.88;;;17.90;99.90;;;;;;5055762;28;20036;-70
2022/10/17 12:08:41;;;;;;;12.00;6.63;;;17.90;99.90;;;;;;5073607;28;20036;-70
2022/10/17 12:11:38;;;;;;;8.80;5.53;;;17.90;99.90;;;;;;5073477;28;20033;-70
2022/10/17 12:16:46;;;;;;;10.20;5.95;;;17.80;99.90;;;;;;5070877;28;20123;-73
2022/10/17 12:19:23;;;;;;;10.23;5.47;;;17.80;99.90;;;;;;5073198;28;20040;-73
2022/10/17 12:21:55;;;;;;;10.70;5.30;;;17.80;99.90;;;;;;5077957;28;20027;-73
2022/10/17 12:24:30;;;;;;;8.52;5.60;;;17.80;99.90;;;;;;5093233;28;20024;-73
2022/10/17 12:26:56;;;;;;;13.93;5.30;;;17.70;99.90;;;;;;5093170;28;20502;-73
2022/10/17 12:29:28;;;;;;;8.90;5.20;;;17.70;99.90;;;;;;5093136;28;20024;-73
2022/10/17 12:32:10;;;;;;;10.13;5.78;;;17.70;99.90;;;;;;5093205;28;20078;-73
2022/10/17 12:34:36;;;;;;;9.10;5.88;;;17.60;99.90;;;;;;5093383;28;20365;-72
2022/10/17 12:37:02;;;;;;;9.85;6.07;;;17.60;99.90;;;;;;5093021;28;20031;-73
2022/10/17 12:39:41;;;;;;;8.98;5.75;;;17.50;99.90;;;;;;5092846;28;20384;-73
2022/10/17 12:42:30;;;;;;;8.98;6.30;;;17.50;99.90;;;;;;5093129;28;20020;-73
2022/10/17 12:44:56;;;;;;;9.73;6.25;;;17.50;99.90;;;;;;5093337;28;20104;-73
2022/10/17 12:47:37;;;;;;;8.18;6.30;;;17.40;99.90;;;;;;5092784;28;20110;-73
2022/10/17 12:50:41;;;;;;;9.23;5.93;;;17.40;99.90;;;;;;5093164;28;20410;-73
2022/10/17 12:53:15;;;;;;;9.65;6.10;;;17.40;99.90;;;;;;5092643;28;20028;-73
2022/10/17 12:55:41;;;;;;;11.38;6.55;;;17.40;99.90;;;;;;5074588;28;20032;-73
2022/10/17 12:58:13;;;;;;;9.15;5.75;;;17.50;99.90;;;;;;5092594;28;20515;-73
2022/10/17 13:00:49;;;;;;;7.50;5.88;;;17.50;99.90;;;;;;5092305;28;20035;-73
2022/10/17 13:03:20;;;;;;;8.68;6.20;;;17.50;99.90;;;;;;5092521;28;20032;-73
2022/10/17 13:05:54;;;;;;;9.55;6.63;;;17.50;99.90;;;;;;5092403;28;20035;-73
2022/10/17 13:08:24;;;;;;;9.55;6.50;;;17.50;99.90;;;;;;5092533;28;20032;-73
2022/10/17 13:10:52;;;;;;;8.57;6.13;;;17.50;99.90;;;;;;5092222;28;20176;-73
2022/10/17 13:13:22;;;;;;;8.57;6.38;;;17.50;99.90;;;;;;5092318;28;20522;-73
2022/10/17 13:15:50;;;;;;;11.30;6.88;;;17.50;99.90;;;;;;5091287;28;20396;-73
2022/10/17 13:18:20;;;;;;;11.70;6.50;;;17.60;99.90;;;;;;5092447;28;20027;-73
2022/10/17 13:21:01;;;;;;;11.52;7.18;;;17.60;99.90;;;;;;5092056;28;20081;-73
2022/10/17 13:23:33;;;;;;;10.55;6.93;;;17.60;99.90;;;;;;5092033;28;20573;-73
2022/10/17 13:26:21;;;;;;;9.38;6.00;;;17.60;99.90;;;;;;5092060;28;20132;-73
2022/10/17 13:29:27;;;;;;;10.68;6.45;;;17.60;99.90;;;;;;5091949;28;20032;-73
2022/10/17 13:31:57;;;;;;;8.05;5.53;;;17.70;99.90;;;;;;5009422;28;20042;-73
2022/10/17 13:34:25;;;;;;;11.05;6.22;;;17.70;99.90;;;;;;5009622;28;20045;-73
2022/10/17 13:36:54;;;;;;;8.25;5.63;;;17.70;99.90;;;;;;5051831;28;20496;-73
2022/10/17 13:39:23;;;;;;;12.10;5.55;;;17.80;99.90;;;;;;5091865;28;20027;-73